sensor_id;sensor_type;location;lat;lon;timestamp;P1;durP1;ratioP1;P2;durP2;ratioP2
63394;SDS011;49531;-34.520;150.798;2023-09-19T00:00:57;5.80;;;4.53;;
63394;SDS011;49531;-34.520;150.798;2023-09-19T00:03:25;5.00;;;4.20;;
63394;SDS011;49531;-34.520;150.798;2023-09-19T00:05:52;6.38;;;4.20;;
63394;SDS011;49531;-34.520;150.798;2023-09-19T00:08:19;6.75;;;4.40;;
63394;SDS011;49531;-34.520;150.798;2023-09-19T00:10:49;7.60;;;4.57;;
63394;SDS011;49531;-34.520;150.798;2023-09-19T00:13:16;6.53;;;4.20;;
63394;SDS011;49531;-34.520;150.798;2023-09-19T00:15:45;6.68;;;4.47;;
63394;SDS011;49531;-34.520;150.798;2023-09-19T00:18:17;7.30;;;4.43;;
63394;SDS011;49531;-34.520;150.798;2023-09-19T00:20:53;6.82;;;4.30;;
63394;SDS011;49531;-34.520;150.798;2023-09-19T00:23:27;4.95;;;4.40;;
63394;SDS011;49531;-34.520;150.798;2023-09-19T00:25:58;5.70;;;4.43;;
63394;SDS011;49531;-34.520;150.798;2023-09-19T00:28:26;9.25;;;4.38;;
63394;SDS011;49531;-34.520;150.798;2023-09-19T00:30:57;6.43;;;4.28;;
63394;SDS011;49531;-34.520;150.798;2023-09-19T00:33:27;4.47;;;4.00;;
63394;SDS011;49531;-34.520;150.798;2023-09-19T00:35:57;4.40;;;4.00;;
63394;SDS011;49531;-34.520;150.798;2023-09-19T00:38:25;5.20;;;4.18;;
63394;SDS011;49531;-34.520;150.798;2023-09-19T00:40:54;5.00;;;4.38;;
63394;SDS011;49531;-34.520;150.798;2023-09-19T00:43:22;5.70;;;4.30;;
63394;SDS011;49531;-34.520;150.798;2023-09-19T00:45:51;5.97;;;4.38;;
63394;SDS011;49531;-34.520;150.798;2023-09-19T00:48:22;6.68;;;4.32;;
63394;SDS011;49531;-34.520;150.798;2023-09-19T00:50:54;4.85;;;4.35;;
63394;SDS011;49531;-34.520;150.798;2023-09-19T00:53:23;5.55;;;4.20;;
63394;SDS011;49531;-34.520;150.798;2023-09-19T00:55:52;6.57;;;4.47;;
63394;SDS011;49531;-34.520;150.798;2023-09-19T00:58:21;4.70;;;4.20;;
63394;SDS011;49531;-34.520;150.798;2023-09-19T01:00:49;5.75;;;4.00;;
63394;SDS011;49531;-34.520;150.798;2023-09-19T01:03:18;6.18;;;3.97;;
63394;SDS011;49531;-34.520;150.798;2023-09-19T01:05:47;4.65;;;4.20;;
63394;SDS011;49531;-34.520;150.798;2023-09-19T01:08:14;5.70;;;4.13;;
63394;SDS011;49531;-34.520;150.798;2023-09-19T01:10:47;5.97;;;4.10;;
63394;SDS011;49531;-34.520;150.798;2023-09-19T01:13:35;4.47;;;4.07;;
63394;SDS011;49531;-34.520;150.798;2023-09-19T01:16:16;5.43;;;4.22;;
63394;SDS011;49531;-34.520;150.798;2023-09-19T01:21:44;5.13;;;4.05;;
63394;SDS011;49531;-34.520;150.798;2023-09-19T01:24:34;5.78;;;4.40;;
63394;SDS011;49531;-34.520;150.798;2023-09-19T01:27:40;4.93;;;4.28;;
63394;SDS011;49531;-34.520;150.798;2023-09-19T01:30:35;5.55;;;4.45;;
63394;SDS011;49531;-34.520;150.798;2023-09-19T01:33:05;7.78;;;4.07;;
63394;SDS011;49531;-34.520;150.798;2023-09-19T01:35:33;5.63;;;4.20;;
63394;SDS011;49531;-34.520;150.798;2023-09-19T01:38:05;5.97;;;4.20;;
63394;SDS011;49531;-34.520;150.798;2023-09-19T01:40:37;4.78;;;3.97;;
63394;SDS011;49531;-34.520;150.798;2023-09-19T01:43:20;5.22;;;4.10;;
63394;SDS011;49531;-34.520;150.798;2023-09-19T01:46:12;4.93;;;4.07;;
63394;SDS011;49531;-34.520;150.798;2023-09-19T01:48:49;4.50;;;4.10;;
63394;SDS011;49531;-34.520;150.798;2023-09-19T01:51:34;9.48;;;4.40;;
63394;SDS011;49531;-34.520;150.798;2023-09-19T01:54:12;6.65;;;4.10;;
63394;SDS011;49531;-34.520;150.798;2023-09-19T01:56:53;8.10;;;4.38;;
63394;SDS011;49531;-34.520;150.798;2023-09-19T01:59:43;8.10;;;4.38;;
63394;SDS011;49531;-34.520;150.798;2023-09-19T02:02:17;4.47;;;3.97;;
63394;SDS011;49531;-34.520;150.798;2023-09-19T02:04:48;4.53;;;4.13;;
63394;SDS011;49531;-34.520;150.798;2023-09-19T02:07:16;7.03;;;4.28;;
63394;SDS011;49531;-34.520;150.798;2023-09-19T02:09:43;4.88;;;4.35;;
63394;SDS011;49531;-34.520;150.798;2023-09-19T02:12:10;4.75;;;4.32;;
63394;SDS011;49531;-34.520;150.798;2023-09-19T02:14:38;4.70;;;4.30;;
63394;SDS011;49531;-34.520;150.798;2023-09-19T02:17:06;4.85;;;4.32;;
63394;SDS011;49531;-34.520;150.798;2023-09-19T02:19:36;6.07;;;4.35;;
63394;SDS011;49531;-34.520;150.798;2023-09-19T02:22:05;5.80;;;4.13;;
63394;SDS011;49531;-34.520;150.798;2023-09-19T02:24:38;4.90;;;4.40;;
63394;SDS011;49531;-34.520;150.798;2023-09-19T02:27:06;5.43;;;4.28;;
63394;SDS011;49531;-34.520;150.798;2023-09-19T02:29:33;5.32;;;4.28;;
63394;SDS011;49531;-34.520;150.798;2023-09-19T02:32:00;4.55;;;4.07;;
63394;SDS011;49531;-34.520;150.798;2023-09-19T02:34:28;5.18;;;4.00;;
63394;SDS011;49531;-34.520;150.798;2023-09-19T02:36:55;5.72;;;4.28;;
63394;SDS011;49531;-34.520;150.798;2023-09-19T02:39:22;5.63;;;4.40;;
63394;SDS011;49531;-34.520;150.798;2023-09-19T02:41:49;6.25;;;4.47;;
63394;SDS011;49531;-34.520;150.798;2023-09-19T02:44:16;5.47;;;4.20;;
63394;SDS011;49531;-34.520;150.798;2023-09-19T02:46:48;4.57;;;4.15;;
63394;SDS011;49531;-34.520;150.798;2023-09-19T02:49:16;7.35;;;4.25;;
63394;SDS011;49531;-34.520;150.798;2023-09-19T02:51:46;4.47;;;3.97;;
63394;SDS011;49531;-34.520;150.798;2023-09-19T02:54:13;4.78;;;4.03;;
63394;SDS011;49531;-34.520;150.798;2023-09-19T02:56:41;5.68;;;4.10;;
63394;SDS011;49531;-34.520;150.798;2023-09-19T02:59:08;4.25;;;3.85;;
63394;SDS011;49531;-34.520;150.798;2023-09-19T03:01:36;4.40;;;3.97;;
63394;SDS011;49531;-34.520;150.798;2023-09-19T03:04:04;5.70;;;4.10;;
63394;SDS011;49531;-34.520;150.798;2023-09-19T03:06:36;4.95;;;4.00;;
63394;SDS011;49531;-34.520;150.798;2023-09-19T03:09:06;4.68;;;4.18;;
63394;SDS011;49531;-34.520;150.798;2023-09-19T03:11:37;7.57;;;4.38;;
63394;SDS011;49531;-34.520;150.798;2023-09-19T03:14:05;6.47;;;4.35;;
63394;SDS011;49531;-34.520;150.798;2023-09-19T03:16:32;5.10;;;4.38;;
63394;SDS011;49531;-34.520;150.798;2023-09-19T03:19:00;6.47;;;4.32;;
63394;SDS011;49531;-34.520;150.798;2023-09-19T03:21:30;4.63;;;4.05;;
63394;SDS011;49531;-34.520;150.798;2023-09-19T03:23:57;5.43;;;4.15;;
63394;SDS011;49531;-34.520;150.798;2023-09-19T03:26:25;6.22;;;4.22;;
63394;SDS011;49531;-34.520;150.798;2023-09-19T03:28:54;4.75;;;4.30;;
63394;SDS011;49531;-34.520;150.798;2023-09-19T03:31:21;5.50;;;4.18;;
63394;SDS011;49531;-34.520;150.798;2023-09-19T03:33:51;4.57;;;4.03;;
63394;SDS011;49531;-34.520;150.798;2023-09-19T03:36:18;5.97;;;4.60;;
63394;SDS011;49531;-34.520;150.798;2023-09-19T03:38:45;6.47;;;4.28;;
63394;SDS011;49531;-34.520;150.798;2023-09-19T03:41:12;5.15;;;4.30;;
63394;SDS011;49531;-34.520;150.798;2023-09-19T03:43:42;4.88;;;4.32;;
63394;SDS011;49531;-34.520;150.798;2023-09-19T03:46:09;6.18;;;4.32;;
63394;SDS011;49531;-34.520;150.798;2023-09-19T03:48:38;4.70;;;4.20;;
63394;SDS011;49531;-34.520;150.798;2023-09-19T03:51:05;5.00;;;4.18;;
63394;SDS011;49531;-34.520;150.798;2023-09-19T03:53:32;8.73;;;4.10;;
63394;SDS011;49531;-34.520;150.798;2023-09-19T03:55:59;4.70;;;4.22;;
63394;SDS011;49531;-34.520;150.798;2023-09-19T03:58:27;5.60;;;4.18;;
63394;SDS011;49531;-34.520;150.798;2023-09-19T04:00:57;7.18;;;4.30;;
63394;SDS011;49531;-34.520;150.798;2023-09-19T04:03:24;4.57;;;4.00;;
63394;SDS011;49531;-34.520;150.798;2023-09-19T04:06:00;5.95;;;4.30;;
63394;SDS011;49531;-34.520;150.798;2023-09-19T04:08:28;8.13;;;3.92;;
63394;SDS011;49531;-34.520;150.798;2023-09-19T04:10:55;4.32;;;3.92;;
63394;SDS011;49531;-34.520;150.798;2023-09-19T04:13:22;6.65;;;4.10;;
63394;SDS011;49531;-34.520;150.798;2023-09-19T04:15:52;4.47;;;4.07;;
63394;SDS011;49531;-34.520;150.798;2023-09-19T04:18:19;6.45;;;4.20;;
63394;SDS011;49531;-34.520;150.798;2023-09-19T04:20:51;4.90;;;4.20;;
63394;SDS011;49531;-34.520;150.798;2023-09-19T04:23:19;5.40;;;3.92;;
63394;SDS011;49531;-34.520;150.798;2023-09-19T04:25:46;5.25;;;4.10;;
63394;SDS011;49531;-34.520;150.798;2023-09-19T04:28:14;5.50;;;4.22;;
63394;SDS011;49531;-34.520;150.798;2023-09-19T04:30:41;5.57;;;4.35;;
63394;SDS011;49531;-34.520;150.798;2023-09-19T04:33:09;6.90;;;4.18;;
63394;SDS011;49531;-34.520;150.798;2023-09-19T04:35:37;6.07;;;4.00;;
63394;SDS011;49531;-34.520;150.798;2023-09-19T04:38:04;6.53;;;4.00;;
63394;SDS011;49531;-34.520;150.798;2023-09-19T04:40:32;6.88;;;4.10;;
63394;SDS011;49531;-34.520;150.798;2023-09-19T04:42:59;5.25;;;4.20;;
63394;SDS011;49531;-34.520;150.798;2023-09-19T04:45:27;4.60;;;4.07;;
63394;SDS011;49531;-34.520;150.798;2023-09-19T04:47:58;4.55;;;4.15;;
63394;SDS011;49531;-34.520;150.798;2023-09-19T04:50:25;6.90;;;4.22;;
63394;SDS011;49531;-34.520;150.798;2023-09-19T04:52:53;6.43;;;4.05;;
63394;SDS011;49531;-34.520;150.798;2023-09-19T04:55:20;5.60;;;4.30;;
63394;SDS011;49531;-34.520;150.798;2023-09-19T04:57:48;6.50;;;4.18;;
63394;SDS011;49531;-34.520;150.798;2023-09-19T05:00:17;4.80;;;4.30;;
63394;SDS011;49531;-34.520;150.798;2023-09-19T05:02:52;7.90;;;4.35;;
63394;SDS011;49531;-34.520;150.798;2023-09-19T05:05:23;5.22;;;4.00;;
63394;SDS011;49531;-34.520;150.798;2023-09-19T05:07:51;4.50;;;4.10;;
63394;SDS011;49531;-34.520;150.798;2023-09-19T05:10:19;4.38;;;3.97;;
63394;SDS011;49531;-34.520;150.798;2023-09-19T05:12:47;5.50;;;4.30;;
63394;SDS011;49531;-34.520;150.798;2023-09-19T05:15:17;4.57;;;4.18;;
63394;SDS011;49531;-34.520;150.798;2023-09-19T05:17:47;4.30;;;3.90;;
63394;SDS011;49531;-34.520;150.798;2023-09-19T05:20:20;7.00;;;4.10;;
63394;SDS011;49531;-34.520;150.798;2023-09-19T05:23:00;5.20;;;3.83;;
63394;SDS011;49531;-34.520;150.798;2023-09-19T05:25:32;4.43;;;4.00;;
63394;SDS011;49531;-34.520;150.798;2023-09-19T05:28:03;5.15;;;4.13;;
63394;SDS011;49531;-34.520;150.798;2023-09-19T05:30:31;4.55;;;3.95;;
63394;SDS011;49531;-34.520;150.798;2023-09-19T05:32:59;4.60;;;4.05;;
63394;SDS011;49531;-34.520;150.798;2023-09-19T05:35:26;4.60;;;4.10;;
63394;SDS011;49531;-34.520;150.798;2023-09-19T05:37:53;4.50;;;4.10;;
63394;SDS011;49531;-34.520;150.798;2023-09-19T05:40:21;5.07;;;4.10;;
63394;SDS011;49531;-34.520;150.798;2023-09-19T05:42:49;5.07;;;3.92;;
63394;SDS011;49531;-34.520;150.798;2023-09-19T05:45:16;5.68;;;4.10;;
63394;SDS011;49531;-34.520;150.798;2023-09-19T05:47:53;3.97;;;3.60;;
63394;SDS011;49531;-34.520;150.798;2023-09-19T05:50:29;5.30;;;4.10;;
63394;SDS011;49531;-34.520;150.798;2023-09-19T05:52:57;4.72;;;3.83;;
63394;SDS011;49531;-34.520;150.798;2023-09-19T05:55:24;4.63;;;4.05;;
63394;SDS011;49531;-34.520;150.798;2023-09-19T05:57:54;4.40;;;4.00;;
63394;SDS011;49531;-34.520;150.798;2023-09-19T06:00:25;4.85;;;4.03;;
63394;SDS011;49531;-34.520;150.798;2023-09-19T06:02:55;5.95;;;4.20;;
63394;SDS011;49531;-34.520;150.798;2023-09-19T06:05:24;5.03;;;4.32;;
63394;SDS011;49531;-34.520;150.798;2023-09-19T06:07:57;4.93;;;4.10;;
63394;SDS011;49531;-34.520;150.798;2023-09-19T06:10:29;9.35;;;3.97;;
63394;SDS011;49531;-34.520;150.798;2023-09-19T06:12:57;6.18;;;3.97;;
63394;SDS011;49531;-34.520;150.798;2023-09-19T06:15:24;4.75;;;3.95;;
63394;SDS011;49531;-34.520;150.798;2023-09-19T06:17:53;5.97;;;4.03;;
63394;SDS011;49531;-34.520;150.798;2023-09-19T06:20:21;6.60;;;4.00;;
63394;SDS011;49531;-34.520;150.798;2023-09-19T06:22:49;6.45;;;3.97;;
63394;SDS011;49531;-34.520;150.798;2023-09-19T06:25:17;5.57;;;4.00;;
63394;SDS011;49531;-34.520;150.798;2023-09-19T06:27:48;8.85;;;4.00;;
63394;SDS011;49531;-34.520;150.798;2023-09-19T06:30:19;6.07;;;3.90;;
63394;SDS011;49531;-34.520;150.798;2023-09-19T06:32:48;5.63;;;4.10;;
63394;SDS011;49531;-34.520;150.798;2023-09-19T06:35:15;5.80;;;3.83;;
63394;SDS011;49531;-34.520;150.798;2023-09-19T06:37:43;5.57;;;4.35;;
63394;SDS011;49531;-34.520;150.798;2023-09-19T06:40:13;5.63;;;3.97;;
63394;SDS011;49531;-34.520;150.798;2023-09-19T06:42:41;4.22;;;3.70;;
63394;SDS011;49531;-34.520;150.798;2023-09-19T06:45:13;4.47;;;3.95;;
63394;SDS011;49531;-34.520;150.798;2023-09-19T06:47:49;5.70;;;3.88;;
63394;SDS011;49531;-34.520;150.798;2023-09-19T06:50:18;4.82;;;3.95;;
63394;SDS011;49531;-34.520;150.798;2023-09-19T06:52:48;5.25;;;3.90;;
63394;SDS011;49531;-34.520;150.798;2023-09-19T06:55:21;5.60;;;4.13;;
63394;SDS011;49531;-34.520;150.798;2023-09-19T06:57:53;6.78;;;4.20;;
63394;SDS011;49531;-34.520;150.798;2023-09-19T07:00:21;7.07;;;3.65;;
63394;SDS011;49531;-34.520;150.798;2023-09-19T07:02:55;4.65;;;3.80;;
63394;SDS011;49531;-34.520;150.798;2023-09-19T07:05:27;6.50;;;3.90;;
63394;SDS011;49531;-34.520;150.798;2023-09-19T07:07:54;6.30;;;4.30;;
63394;SDS011;49531;-34.520;150.798;2023-09-19T07:10:22;4.50;;;3.65;;
63394;SDS011;49531;-34.520;150.798;2023-09-19T07:12:56;6.25;;;3.90;;
63394;SDS011;49531;-34.520;150.798;2023-09-19T07:15:24;6.33;;;3.43;;
63394;SDS011;49531;-34.520;150.798;2023-09-19T07:17:52;5.00;;;3.95;;
63394;SDS011;49531;-34.520;150.798;2023-09-19T07:20:21;5.07;;;4.03;;
63394;SDS011;49531;-34.520;150.798;2023-09-19T07:22:54;5.72;;;3.83;;
63394;SDS011;49531;-34.520;150.798;2023-09-19T07:25:21;6.72;;;3.78;;
63394;SDS011;49531;-34.520;150.798;2023-09-19T07:27:48;8.50;;;4.07;;
63394;SDS011;49531;-34.520;150.798;2023-09-19T07:30:16;5.18;;;4.03;;
63394;SDS011;49531;-34.520;150.798;2023-09-19T07:32:43;4.75;;;3.88;;
63394;SDS011;49531;-34.520;150.798;2023-09-19T07:35:10;5.22;;;4.05;;
63394;SDS011;49531;-34.520;150.798;2023-09-19T07:37:38;6.93;;;3.90;;
63394;SDS011;49531;-34.520;150.798;2023-09-19T07:40:05;4.43;;;4.03;;
63394;SDS011;49531;-34.520;150.798;2023-09-19T07:42:35;6.60;;;3.92;;
63394;SDS011;49531;-34.520;150.798;2023-09-19T07:45:06;4.90;;;3.90;;
63394;SDS011;49531;-34.520;150.798;2023-09-19T07:47:34;6.15;;;3.88;;
63394;SDS011;49531;-34.520;150.798;2023-09-19T07:50:01;5.72;;;4.03;;
63394;SDS011;49531;-34.520;150.798;2023-09-19T07:52:29;5.47;;;3.85;;
63394;SDS011;49531;-34.520;150.798;2023-09-19T07:54:59;5.20;;;3.78;;
63394;SDS011;49531;-34.520;150.798;2023-09-19T07:57:27;5.82;;;4.00;;
63394;SDS011;49531;-34.520;150.798;2023-09-19T07:59:54;5.35;;;3.67;;
63394;SDS011;49531;-34.520;150.798;2023-09-19T08:02:22;4.28;;;3.88;;
63394;SDS011;49531;-34.520;150.798;2023-09-19T08:04:49;6.45;;;4.15;;
63394;SDS011;49531;-34.520;150.798;2023-09-19T08:07:17;4.32;;;3.85;;
63394;SDS011;49531;-34.520;150.798;2023-09-19T08:09:44;6.07;;;3.95;;
63394;SDS011;49531;-34.520;150.798;2023-09-19T08:12:14;6.05;;;3.90;;
63394;SDS011;49531;-34.520;150.798;2023-09-19T08:14:42;4.35;;;3.72;;
63394;SDS011;49531;-34.520;150.798;2023-09-19T08:17:09;4.07;;;3.70;;
63394;SDS011;49531;-34.520;150.798;2023-09-19T08:19:37;4.90;;;3.78;;
63394;SDS011;49531;-34.520;150.798;2023-09-19T08:22:07;4.50;;;4.10;;
63394;SDS011;49531;-34.520;150.798;2023-09-19T08:24:36;4.10;;;3.70;;
63394;SDS011;49531;-34.520;150.798;2023-09-19T08:27:04;4.95;;;3.90;;
63394;SDS011;49531;-34.520;150.798;2023-09-19T08:29:34;6.05;;;4.13;;
63394;SDS011;49531;-34.520;150.798;2023-09-19T08:32:01;4.28;;;3.88;;
63394;SDS011;49531;-34.520;150.798;2023-09-19T08:34:29;6.00;;;3.95;;
63394;SDS011;49531;-34.520;150.798;2023-09-19T08:36:58;4.30;;;3.90;;
63394;SDS011;49531;-34.520;150.798;2023-09-19T08:39:25;4.97;;;3.92;;
63394;SDS011;49531;-34.520;150.798;2023-09-19T08:41:59;4.28;;;3.88;;
63394;SDS011;49531;-34.520;150.798;2023-09-19T08:44:27;4.55;;;4.07;;
63394;SDS011;49531;-34.520;150.798;2023-09-19T08:47:15;4.60;;;4.03;;
63394;SDS011;49531;-34.520;150.798;2023-09-19T08:52:37;5.35;;;3.88;;
63394;SDS011;49531;-34.520;150.798;2023-09-19T08:55:09;4.50;;;3.80;;
63394;SDS011;49531;-34.520;150.798;2023-09-19T08:57:39;4.30;;;3.85;;
63394;SDS011;49531;-34.520;150.798;2023-09-19T09:00:14;4.70;;;4.07;;
63394;SDS011;49531;-34.520;150.798;2023-09-19T09:02:46;5.10;;;4.10;;
63394;SDS011;49531;-34.520;150.798;2023-09-19T09:05:15;4.43;;;3.97;;
63394;SDS011;49531;-34.520;150.798;2023-09-19T09:07:49;4.25;;;3.75;;
63394;SDS011;49531;-34.520;150.798;2023-09-19T09:10:22;4.50;;;3.92;;
63394;SDS011;49531;-34.520;150.798;2023-09-19T09:12:53;5.57;;;3.95;;
63394;SDS011;49531;-34.520;150.798;2023-09-19T09:15:23;6.57;;;3.78;;
63394;SDS011;49531;-34.520;150.798;2023-09-19T09:17:51;4.78;;;3.85;;
63394;SDS011;49531;-34.520;150.798;2023-09-19T09:20:22;6.90;;;3.80;;
63394;SDS011;49531;-34.520;150.798;2023-09-19T09:22:53;6.47;;;4.00;;
63394;SDS011;49531;-34.520;150.798;2023-09-19T09:25:24;4.13;;;3.72;;
63394;SDS011;49531;-34.520;150.798;2023-09-19T09:28:29;5.15;;;3.70;;
63394;SDS011;49531;-34.520;150.798;2023-09-19T09:30:57;6.10;;;3.88;;
63394;SDS011;49531;-34.520;150.798;2023-09-19T09:33:25;4.15;;;3.72;;
63394;SDS011;49531;-34.520;150.798;2023-09-19T09:35:59;5.03;;;3.67;;
63394;SDS011;49531;-34.520;150.798;2023-09-19T09:38:47;4.70;;;3.90;;
63394;SDS011;49531;-34.520;150.798;2023-09-19T09:41:15;4.50;;;3.58;;
63394;SDS011;49531;-34.520;150.798;2023-09-19T09:43:53;4.97;;;3.90;;
63394;SDS011;49531;-34.520;150.798;2023-09-19T09:46:20;4.10;;;3.70;;
63394;SDS011;49531;-34.520;150.798;2023-09-19T09:54:25;4.50;;;4.05;;
63394;SDS011;49531;-34.520;150.798;2023-09-19T09:57:08;5.93;;;3.90;;
63394;SDS011;49531;-34.520;150.798;2023-09-19T09:59:55;5.53;;;3.67;;
63394;SDS011;49531;-34.520;150.798;2023-09-19T10:02:44;3.97;;;3.67;;
63394;SDS011;49531;-34.520;150.798;2023-09-19T10:05:17;4.60;;;3.70;;
63394;SDS011;49531;-34.520;150.798;2023-09-19T10:08:18;4.68;;;3.78;;
63394;SDS011;49531;-34.520;150.798;2023-09-19T10:10:48;4.75;;;3.88;;
63394;SDS011;49531;-34.520;150.798;2023-09-19T10:13:21;6.03;;;3.78;;
63394;SDS011;49531;-34.520;150.798;2023-09-19T10:16:18;4.65;;;3.80;;
63394;SDS011;49531;-34.520;150.798;2023-09-19T10:18:58;5.15;;;3.90;;
63394;SDS011;49531;-34.520;150.798;2023-09-19T10:22:08;4.75;;;3.55;;
63394;SDS011;49531;-34.520;150.798;2023-09-19T10:24:37;4.10;;;3.65;;
63394;SDS011;49531;-34.520;150.798;2023-09-19T10:36:51;4.60;;;3.80;;
63394;SDS011;49531;-34.520;150.798;2023-09-19T10:39:34;4.10;;;3.67;;
63394;SDS011;49531;-34.520;150.798;2023-09-19T10:42:04;4.68;;;3.80;;
63394;SDS011;49531;-34.520;150.798;2023-09-19T10:44:38;5.50;;;3.83;;
63394;SDS011;49531;-34.520;150.798;2023-09-19T10:47:09;4.10;;;3.70;;
63394;SDS011;49531;-34.520;150.798;2023-09-19T10:49:45;5.38;;;3.85;;
63394;SDS011;49531;-34.520;150.798;2023-09-19T10:52:14;5.10;;;3.60;;
63394;SDS011;49531;-34.520;150.798;2023-09-19T10:54:46;6.15;;;3.95;;
63394;SDS011;49531;-34.520;150.798;2023-09-19T10:57:23;4.13;;;3.63;;
63394;SDS011;49531;-34.520;150.798;2023-09-19T11:00:10;4.75;;;4.03;;
63394;SDS011;49531;-34.520;150.798;2023-09-19T11:06:07;5.40;;;3.65;;
63394;SDS011;49531;-34.520;150.798;2023-09-19T11:08:51;4.70;;;3.80;;
63394;SDS011;49531;-34.520;150.798;2023-09-19T11:11:41;4.13;;;3.72;;
63394;SDS011;49531;-34.520;150.798;2023-09-19T11:30:47;4.05;;;3.65;;
63394;SDS011;49531;-34.520;150.798;2023-09-19T11:33:16;4.20;;;3.58;;
63394;SDS011;49531;-34.520;150.798;2023-09-19T11:36:01;4.40;;;3.60;;
63394;SDS011;49531;-34.520;150.798;2023-09-19T11:43:49;4.80;;;3.78;;
63394;SDS011;49531;-34.520;150.798;2023-09-19T11:49:29;4.72;;;3.60;;
63394;SDS011;49531;-34.520;150.798;2023-09-19T11:51:59;4.82;;;3.90;;
63394;SDS011;49531;-34.520;150.798;2023-09-19T11:54:30;4.03;;;3.58;;
63394;SDS011;49531;-34.520;150.798;2023-09-19T11:56:58;5.50;;;3.58;;
63394;SDS011;49531;-34.520;150.798;2023-09-19T11:59:27;4.00;;;3.60;;
63394;SDS011;49531;-34.520;150.798;2023-09-19T12:01:56;4.88;;;3.65;;
63394;SDS011;49531;-34.520;150.798;2023-09-19T12:07:07;3.97;;;3.58;;
63394;SDS011;49531;-34.520;150.798;2023-09-19T12:09:46;5.03;;;3.60;;
63394;SDS011;49531;-34.520;150.798;2023-09-19T12:12:24;6.07;;;3.70;;
63394;SDS011;49531;-34.520;150.798;2023-09-19T12:14:53;4.97;;;3.70;;
63394;SDS011;49531;-34.520;150.798;2023-09-19T12:17:34;4.82;;;3.47;;
63394;SDS011;49531;-34.520;150.798;2023-09-19T12:20:02;3.67;;;3.38;;
63394;SDS011;49531;-34.520;150.798;2023-09-19T12:22:48;4.78;;;3.70;;
63394;SDS011;49531;-34.520;150.798;2023-09-19T12:25:15;4.05;;;3.55;;
63394;SDS011;49531;-34.520;150.798;2023-09-19T12:27:44;4.25;;;3.70;;
63394;SDS011;49531;-34.520;150.798;2023-09-19T12:30:13;4.28;;;3.30;;
63394;SDS011;49531;-34.520;150.798;2023-09-19T12:32:56;4.93;;;3.60;;
63394;SDS011;49531;-34.520;150.798;2023-09-19T12:35:40;4.82;;;3.50;;
63394;SDS011;49531;-34.520;150.798;2023-09-19T12:41:11;3.50;;;3.20;;
63394;SDS011;49531;-34.520;150.798;2023-09-19T12:43:45;7.73;;;3.63;;
63394;SDS011;49531;-34.520;150.798;2023-09-19T12:46:34;4.72;;;3.53;;
63394;SDS011;49531;-34.520;150.798;2023-09-19T12:54:14;5.35;;;3.80;;
63394;SDS011;49531;-34.520;150.798;2023-09-19T12:56:54;4.88;;;3.70;;
63394;SDS011;49531;-34.520;150.798;2023-09-19T12:59:29;4.75;;;3.50;;
63394;SDS011;49531;-34.520;150.798;2023-09-19T13:02:13;3.95;;;3.55;;
63394;SDS011;49531;-34.520;150.798;2023-09-19T13:11:54;4.93;;;3.55;;
63394;SDS011;49531;-34.520;150.798;2023-09-19T13:18:12;3.70;;;3.40;;
63394;SDS011;49531;-34.520;150.798;2023-09-19T13:24:24;4.25;;;3.75;;
63394;SDS011;49531;-34.520;150.798;2023-09-19T13:27:27;5.32;;;3.78;;
63394;SDS011;49531;-34.520;150.798;2023-09-19T13:33:45;7.38;;;4.05;;
63394;SDS011;49531;-34.520;150.798;2023-09-19T13:39:55;5.07;;;3.88;;
63394;SDS011;49531;-34.520;150.798;2023-09-19T13:42:37;6.35;;;4.13;;
63394;SDS011;49531;-34.520;150.798;2023-09-19T13:45:54;5.35;;;3.80;;
63394;SDS011;49531;-34.520;150.798;2023-09-19T13:48:51;4.55;;;4.05;;
63394;SDS011;49531;-34.520;150.798;2023-09-19T13:51:56;4.63;;;3.88;;
63394;SDS011;49531;-34.520;150.798;2023-09-19T13:54:55;6.57;;;4.20;;
63394;SDS011;49531;-34.520;150.798;2023-09-19T14:00:37;4.75;;;4.18;;
63394;SDS011;49531;-34.520;150.798;2023-09-19T14:06:37;4.68;;;4.28;;
63394;SDS011;49531;-34.520;150.798;2023-09-19T14:09:36;5.95;;;4.40;;
63394;SDS011;49531;-34.520;150.798;2023-09-19T14:15:30;6.55;;;4.40;;
63394;SDS011;49531;-34.520;150.798;2023-09-19T14:21:42;6.60;;;4.10;;
63394;SDS011;49531;-34.520;150.798;2023-09-19T14:24:39;4.50;;;3.95;;
63394;SDS011;49531;-34.520;150.798;2023-09-19T14:38:28;5.28;;;4.00;;
63394;SDS011;49531;-34.520;150.798;2023-09-19T14:42:19;5.55;;;4.07;;
63394;SDS011;49531;-34.520;150.798;2023-09-19T14:45:06;5.38;;;4.05;;
63394;SDS011;49531;-34.520;150.798;2023-09-19T14:48:13;4.70;;;4.20;;
63394;SDS011;49531;-34.520;150.798;2023-09-19T14:50:52;4.82;;;4.25;;
63394;SDS011;49531;-34.520;150.798;2023-09-19T15:04:56;4.90;;;4.40;;
63394;SDS011;49531;-34.520;150.798;2023-09-19T15:08:53;4.70;;;4.30;;
63394;SDS011;49531;-34.520;150.798;2023-09-19T15:45:53;5.18;;;4.22;;
63394;SDS011;49531;-34.520;150.798;2023-09-19T15:49:04;5.28;;;4.38;;
63394;SDS011;49531;-34.520;150.798;2023-09-19T15:51:54;7.00;;;4.35;;
63394;SDS011;49531;-34.520;150.798;2023-09-19T16:17:02;5.68;;;4.70;;
63394;SDS011;49531;-34.520;150.798;2023-09-19T16:23:43;4.95;;;4.35;;
63394;SDS011;49531;-34.520;150.798;2023-09-19T16:30:09;4.90;;;4.38;;
63394;SDS011;49531;-34.520;150.798;2023-09-19T16:46:38;4.90;;;4.40;;
63394;SDS011;49531;-34.520;150.798;2023-09-19T16:59:41;4.85;;;4.28;;
63394;SDS011;49531;-34.520;150.798;2023-09-19T17:06:56;4.57;;;4.18;;
63394;SDS011;49531;-34.520;150.798;2023-09-19T17:24:16;4.95;;;4.20;;
63394;SDS011;49531;-34.520;150.798;2023-09-19T17:26:44;6.75;;;4.40;;
63394;SDS011;49531;-34.520;150.798;2023-09-19T17:29:11;5.18;;;4.22;;
63394;SDS011;49531;-34.520;150.798;2023-09-19T17:31:38;4.18;;;3.80;;
63394;SDS011;49531;-34.520;150.798;2023-09-19T17:34:05;4.78;;;4.15;;
63394;SDS011;49531;-34.520;150.798;2023-09-19T17:36:33;5.07;;;4.13;;
63394;SDS011;49531;-34.520;150.798;2023-09-19T17:39:01;4.50;;;4.07;;
63394;SDS011;49531;-34.520;150.798;2023-09-19T17:41:30;5.20;;;3.90;;
63394;SDS011;49531;-34.520;150.798;2023-09-19T17:43:58;6.13;;;4.10;;
63394;SDS011;49531;-34.520;150.798;2023-09-19T17:46:26;5.22;;;4.15;;
63394;SDS011;49531;-34.520;150.798;2023-09-19T17:48:57;4.90;;;4.40;;
63394;SDS011;49531;-34.520;150.798;2023-09-19T17:51:25;5.38;;;4.20;;
63394;SDS011;49531;-34.520;150.798;2023-09-19T17:53:53;4.90;;;4.00;;
63394;SDS011;49531;-34.520;150.798;2023-09-19T17:56:24;4.32;;;3.92;;
63394;SDS011;49531;-34.520;150.798;2023-09-19T17:58:51;4.32;;;3.92;;
63394;SDS011;49531;-34.520;150.798;2023-09-19T18:01:22;4.57;;;4.10;;
63394;SDS011;49531;-34.520;150.798;2023-09-19T18:03:53;4.68;;;3.90;;
63394;SDS011;49531;-34.520;150.798;2023-09-19T18:06:27;5.22;;;3.95;;
63394;SDS011;49531;-34.520;150.798;2023-09-19T18:08:57;4.90;;;4.07;;
63394;SDS011;49531;-34.520;150.798;2023-09-19T18:11:24;4.43;;;4.03;;
63394;SDS011;49531;-34.520;150.798;2023-09-19T18:13:54;4.75;;;3.90;;
63394;SDS011;49531;-34.520;150.798;2023-09-19T18:16:23;4.85;;;3.80;;
63394;SDS011;49531;-34.520;150.798;2023-09-19T18:18:59;4.55;;;3.97;;
63394;SDS011;49531;-34.520;150.798;2023-09-19T18:21:28;6.80;;;4.53;;
63394;SDS011;49531;-34.520;150.798;2023-09-19T18:23:58;5.18;;;4.00;;
63394;SDS011;49531;-34.520;150.798;2023-09-19T18:26:29;4.40;;;3.85;;
63394;SDS011;49531;-34.520;150.798;2023-09-19T18:28:56;4.28;;;3.78;;